Time;durP1;ratioP1;P1;durP2;ratioP2;P2;SDS_P1;SDS_P2;PMS_P1;PMS_P2;Temp;Humidity;BMP_temperature;BMP_pressure;BME280_temperature;BME280_humidity;BME280_pressure;Samples;Min_cycle;Max_cycle;Signal;HPM_P1;HPM_P2
2020/12/12 00:00:46;;;;;;;17.60;8.52;;;7.70;99.90;;;;;;4978714;28;20065;-80
2020/12/12 00:03:12;;;;;;;15.82;8.00;;;7.50;99.90;;;;;;4993652;28;20205;-82
2020/12/12 00:05:41;;;;;;;16.00;8.05;;;7.50;99.90;;;;;;4992009;28;20046;-82
2020/12/12 00:08:08;;;;;;;15.38;8.10;;;7.60;99.90;;;;;;4990218;28;20061;-82
2020/12/12 00:10:35;;;;;;;14.05;7.85;;;7.60;99.90;;;;;;4991255;28;20043;-82
2020/12/12 00:13:08;;;;;;;18.27;7.55;;;7.60;99.90;;;;;;4974124;28;20552;-82
2020/12/12 00:15:36;;;;;;;15.85;7.90;;;7.50;99.90;;;;;;4992300;28;20500;-80
2020/12/12 00:18:02;;;;;;;14.70;8.15;;;7.50;99.90;;;;;;4993223;28;20072;-82
2020/12/12 00:20:30;;;;;;;15.27;8.10;;;7.50;99.90;;;;;;4972960;28;20120;-82
2020/12/12 00:22:56;;;;;;;13.95;7.75;;;7.60;99.90;;;;;;4975163;28;21155;-81
2020/12/12 00:25:24;;;;;;;13.73;7.35;;;7.60;99.90;;;;;;4994322;28;20054;-83
2020/12/12 00:27:50;;;;;;;15.13;8.35;;;7.40;99.90;;;;;;4996149;28;20107;-81
2020/12/12 00:30:17;;;;;;;14.70;7.85;;;7.50;99.90;;;;;;4981550;28;20088;-81
2020/12/12 00:32:44;;;;;;;14.95;7.18;;;7.50;99.90;;;;;;4993578;28;20112;-82
2020/12/12 00:35:10;;;;;;;14.68;7.88;;;7.60;99.90;;;;;;4998154;28;20077;-82
2020/12/12 00:37:36;;;;;;;15.55;7.13;;;7.60;99.90;;;;;;4979317;28;20068;-80
2020/12/12 00:40:03;;;;;;;14.10;7.20;;;7.50;99.90;;;;;;4998494;28;20488;-81
2020/12/12 00:42:29;;;;;;;15.13;6.72;;;7.60;99.90;;;;;;4993802;28;20172;-82
2020/12/12 00:44:56;;;;;;;11.23;6.65;;;7.60;99.90;;;;;;4998500;28;20471;-79
2020/12/12 00:47:23;;;;;;;13.93;7.03;;;7.50;99.90;;;;;;4997293;28;20054;-80
2020/12/12 00:49:49;;;;;;;13.98;6.80;;;7.60;99.90;;;;;;4986670;28;20075;-86
2020/12/12 00:52:16;;;;;;;14.48;7.30;;;7.50;99.90;;;;;;4979166;28;20524;-82
2020/12/12 00:54:42;;;;;;;12.23;6.97;;;7.50;99.90;;;;;;4995301;28;20046;-81
2020/12/12 00:57:10;;;;;;;14.50;7.57;;;7.50;99.90;;;;;;4978380;28;20500;-79
2020/12/12 00:59:37;;;;;;;14.95;7.80;;;7.60;99.90;;;;;;4996662;28;20101;-84
2020/12/12 01:02:04;;;;;;;12.88;7.22;;;7.50;99.90;;;;;;5004310;28;20050;-82
2020/12/12 01:04:30;;;;;;;14.50;7.32;;;7.50;99.90;;;;;;4979576;28;20050;-84
2020/12/12 01:06:57;;;;;;;13.15;6.43;;;7.50;99.90;;;;;;5009560;28;20073;-81
2020/12/12 01:09:23;;;;;;;13.25;7.22;;;7.60;99.90;;;;;;5012896;28;20050;-82
2020/12/12 01:11:51;;;;;;;14.13;6.93;;;7.50;99.90;;;;;;4987902;28;20050;-83
2020/12/12 01:14:18;;;;;;;12.63;7.68;;;7.40;99.90;;;;;;4993775;28;20054;-83
2020/12/12 01:16:44;;;;;;;13.85;7.30;;;7.40;99.90;;;;;;4980510;28;20049;-81
2020/12/12 01:19:11;;;;;;;15.13;7.10;;;7.50;99.90;;;;;;5008986;28;20050;-82
2020/12/12 01:21:38;;;;;;;11.18;6.45;;;7.70;99.90;;;;;;4980237;28;20129;-82
2020/12/12 01:24:05;;;;;;;12.65;6.65;;;7.60;99.90;;;;;;5009444;28;20156;-83
2020/12/12 01:26:32;;;;;;;12.32;6.65;;;7.70;99.90;;;;;;4993495;28;20054;-80
2020/12/12 01:28:59;;;;;;;11.85;6.40;;;7.60;99.90;;;;;;5010184;28;20137;-82
2020/12/12 01:31:26;;;;;;;11.23;6.18;;;7.60;99.90;;;;;;4986475;28;20041;-82
2020/12/12 01:33:53;;;;;;;12.63;7.07;;;7.60;99.90;;;;;;4992629;28;20038;-82
2020/12/12 01:36:20;;;;;;;12.25;6.65;;;7.60;99.90;;;;;;5006873;28;20591;-80
2020/12/12 01:38:46;;;;;;;11.43;6.38;;;7.60;99.90;;;;;;5009422;28;20042;-82
2020/12/12 01:41:13;;;;;;;12.95;7.32;;;7.60;99.90;;;;;;5005095;28;20050;-82
2020/12/12 01:43:39;;;;;;;14.57;7.40;;;7.50;99.90;;;;;;4992514;28;20064;-81
2020/12/12 01:46:06;;;;;;;12.85;7.07;;;7.50;99.90;;;;;;5011074;28;20050;-82
2020/12/12 01:48:33;;;;;;;12.77;6.82;;;7.60;99.90;;;;;;5010594;28;20505;-82
2020/12/12 01:51:01;;;;;;;13.00;7.55;;;7.60;99.90;;;;;;4999982;28;20104;-84
2020/12/12 01:53:28;;;;;;;14.25;7.85;;;7.50;99.90;;;;;;4994481;28;20072;-82
2020/12/12 01:55:54;;;;;;;14.07;8.05;;;7.60;99.90;;;;;;4990719;28;20046;-83
2020/12/12 01:58:21;;;;;;;15.65;7.90;;;7.50;99.90;;;;;;4993738;28;20050;-81
2020/12/12 02:00:47;;;;;;;14.02;7.88;;;7.60;99.90;;;;;;5008868;28;20180;-82
2020/12/12 02:03:20;;;;;;;17.60;8.07;;;7.60;99.90;;;;;;4994767;28;20104;-81
2020/12/12 02:05:47;;;;;;;15.70;8.13;;;7.60;99.90;;;;;;4983353;28;20049;-82
2020/12/12 02:08:18;;;;;;;14.50;7.75;;;7.60;99.90;;;;;;4993988;28;20045;-83
2020/12/12 02:10:47;;;;;;;13.25;7.32;;;7.70;99.90;;;;;;5003740;28;20092;-83
2020/12/12 02:13:16;;;;;;;14.82;7.53;;;7.60;99.90;;;;;;5004849;28;20146;-82
2020/12/12 02:15:43;;;;;;;14.23;7.28;;;7.60;99.90;;;;;;5010681;28;20046;-80
2020/12/12 02:18:21;;;;;;;14.25;7.40;;;7.50;99.90;;;;;;5007279;28;20053;-84
2020/12/12 02:20:51;;;;;;;14.43;7.30;;;7.60;99.90;;;;;;5012355;28;20099;-85
2020/12/12 02:23:19;;;;;;;14.40;7.35;;;7.50;99.90;;;;;;5002099;28;20053;-84
2020/12/12 02:25:45;;;;;;;14.10;7.25;;;7.50;99.90;;;;;;4993148;28;20038;-81
2020/12/12 02:28:16;;;;;;;12.95;6.68;;;7.60;99.90;;;;;;4991719;28;20532;-83
2020/12/12 02:30:42;;;;;;;14.55;6.97;;;7.70;99.90;;;;;;4993550;28;20491;-82
2020/12/12 02:33:10;;;;;;;17.08;7.25;;;7.80;99.90;;;;;;4989615;28;20058;-84
2020/12/12 02:35:37;;;;;;;16.85;7.78;;;7.80;99.90;;;;;;5012085;28;20049;-82
2020/12/12 02:38:04;;;;;;;19.20;8.15;;;7.90;99.90;;;;;;5005408;28;20832;-81
2020/12/12 02:40:30;;;;;;;12.70;7.63;;;7.80;99.90;;;;;;5010525;28;20060;-82
2020/12/12 02:42:57;;;;;;;17.40;8.80;;;7.80;99.90;;;;;;5010812;28;20042;-81
2020/12/12 02:45:24;;;;;;;15.20;8.38;;;7.70;99.90;;;;;;4991882;28;20049;-80
2020/12/12 02:47:50;;;;;;;15.30;8.18;;;7.70;99.90;;;;;;4988301;28;20101;-82
2020/12/12 02:50:25;;;;;;;15.50;8.32;;;7.90;99.90;;;;;;4991503;28;20550;-82
2020/12/12 02:52:52;;;;;;;14.63;8.10;;;7.80;99.90;;;;;;5007795;28;20057;-81
2020/12/12 02:55:21;;;;;;;15.98;7.93;;;7.80;99.90;;;;;;4994182;28;20054;-82
2020/12/12 02:57:48;;;;;;;13.85;7.28;;;7.90;99.90;;;;;;4998679;28;20082;-82
2020/12/12 03:00:17;;;;;;;12.77;7.22;;;7.80;99.90;;;;;;5008551;28;20054;-83
2020/12/12 03:02:44;;;;;;;14.07;7.28;;;7.80;99.90;;;;;;4981093;28;20423;-82
2020/12/12 03:05:11;;;;;;;12.40;7.40;;;7.60;99.90;;;;;;4991259;28;20565;-81
2020/12/12 03:07:37;;;;;;;12.82;7.35;;;7.80;99.90;;;;;;5002976;28;20046;-82
2020/12/12 03:10:06;;;;;;;13.20;7.10;;;7.80;99.90;;;;;;5012083;28;20448;-81
2020/12/12 03:12:38;;;;;;;13.23;7.60;;;7.90;99.90;;;;;;4991961;28;20041;-81
2020/12/12 03:15:06;;;;;;;15.02;7.32;;;7.70;99.90;;;;;;5010049;28;20045;-80
2020/12/12 03:17:33;;;;;;;12.35;7.22;;;7.70;99.90;;;;;;5014760;28;20041;-80
2020/12/12 03:20:03;;;;;;;14.30;6.70;;;7.80;99.90;;;;;;4989303;28;20049;-81
2020/12/12 03:22:30;;;;;;;14.02;7.57;;;7.90;99.90;;;;;;4989646;28;20136;-80
2020/12/12 03:24:56;;;;;;;15.60;7.38;;;7.90;99.90;;;;;;5011382;28;20385;-80
2020/12/12 03:27:23;;;;;;;12.70;7.20;;;7.90;99.90;;;;;;4993394;28;20062;-80
2020/12/12 03:29:49;;;;;;;15.60;7.32;;;7.90;99.90;;;;;;5008663;28;20052;-80
2020/12/12 03:32:29;;;;;;;14.32;7.65;;;7.80;99.90;;;;;;5010735;28;20049;-80
2020/12/12 03:34:56;;;;;;;16.50;8.40;;;7.90;99.90;;;;;;5005682;28;20049;-81
2020/12/12 03:37:25;;;;;;;14.80;8.25;;;7.80;99.90;;;;;;4974597;28;20051;-81
2020/12/12 03:39:52;;;;;;;15.70;8.73;;;7.70;99.90;;;;;;4990713;28;20092;-82
2020/12/12 03:42:18;;;;;;;15.65;8.38;;;7.80;99.90;;;;;;4989743;28;20383;-80
2020/12/12 03:44:45;;;;;;;18.38;8.68;;;7.70;99.90;;;;;;5009251;28;20846;-79
2020/12/12 03:47:11;;;;;;;16.70;8.40;;;7.70;99.90;;;;;;5006985;28;20050;-81
2020/12/12 03:49:39;;;;;;;17.77;9.15;;;7.80;99.90;;;;;;5009580;28;20552;-82
2020/12/12 03:52:05;;;;;;;18.88;8.82;;;7.70;99.90;;;;;;4989178;28;20058;-81
2020/12/12 03:54:32;;;;;;;17.02;9.05;;;7.80;99.90;;;;;;4989856;28;20054;-80
2020/12/12 03:57:01;;;;;;;18.88;9.25;;;7.80;99.90;;;;;;4998032;28;20499;-80
2020/12/12 03:59:27;;;;;;;16.55;8.55;;;7.80;99.90;;;;;;5003043;28;20043;-81
2020/12/12 04:01:54;;;;;;;19.83;9.07;;;7.80;99.90;;;;;;5007841;28;20045;-81
2020/12/12 04:04:20;;;;;;;18.30;9.95;;;7.80;99.90;;;;;;5015106;28;20104;-82
2020/12/12 04:06:47;;;;;;;21.88;10.65;;;7.60;99.90;;;;;;5009127;28;20064;-81
2020/12/12 04:09:13;;;;;;;18.85;9.52;;;7.60;99.90;;;;;;4993783;28;20042;-81
2020/12/12 04:11:40;;;;;;;16.77;9.20;;;7.60;99.90;;;;;;4985983;28;20059;-80
2020/12/12 04:14:07;;;;;;;18.52;9.98;;;7.70;99.90;;;;;;5004211;28;20058;-82
2020/12/12 04:16:33;;;;;;;16.65;9.05;;;7.80;99.90;;;;;;5000457;28;20045;-81
2020/12/12 04:19:01;;;;;;;18.65;9.73;;;7.90;99.90;;;;;;4977691;28;20037;-80
2020/12/12 04:21:27;;;;;;;17.38;8.68;;;7.70;99.90;;;;;;4990897;28;20423;-81
2020/12/12 04:23:53;;;;;;;17.60;9.57;;;7.70;99.90;;;;;;5004343;28;20045;-83
2020/12/12 04:26:20;;;;;;;18.02;8.85;;;7.60;99.90;;;;;;5004839;28;20057;-82
2020/12/12 04:28:46;;;;;;;21.33;9.32;;;7.60;99.90;;;;;;5006721;28;20132;-82
2020/12/12 04:31:13;;;;;;;18.45;8.98;;;7.50;99.90;;;;;;5006534;28;20465;-82
2020/12/12 04:33:39;;;;;;;18.27;8.65;;;7.40;99.90;;;;;;4990548;28;20046;-81
2020/12/12 04:36:06;;;;;;;16.08;7.78;;;7.50;99.90;;;;;;4990959;28;20042;-81
2020/12/12 04:38:35;;;;;;;19.02;8.85;;;7.50;99.90;;;;;;4989523;28;20053;-82
2020/12/12 04:41:09;;;;;;;16.40;8.52;;;7.40;99.90;;;;;;4989583;28;20129;-81
2020/12/12 04:43:40;;;;;;;15.10;8.15;;;7.50;99.90;;;;;;5002619;28;20042;-82
2020/12/12 04:46:07;;;;;;;17.17;8.05;;;7.40;99.90;;;;;;4992916;28;20047;-82
2020/12/12 04:48:34;;;;;;;18.20;9.40;;;7.30;99.90;;;;;;5005076;28;20042;-81
2020/12/12 04:51:00;;;;;;;17.27;8.52;;;7.30;99.90;;;;;;5009436;28;20050;-81
2020/12/12 04:53:27;;;;;;;15.40;8.45;;;7.30;99.90;;;;;;4992939;28;20046;-81
2020/12/12 04:55:55;;;;;;;12.30;7.63;;;7.30;99.90;;;;;;5009910;28;20129;-81
2020/12/12 04:58:24;;;;;;;15.77;8.27;;;7.30;99.90;;;;;;5004626;28;20466;-81
2020/12/12 05:00:52;;;;;;;14.23;7.90;;;7.40;99.90;;;;;;4990048;28;20060;-82
2020/12/12 05:03:21;;;;;;;15.35;8.43;;;7.50;99.90;;;;;;4994388;28;20058;-81
2020/12/12 05:05:48;;;;;;;20.15;9.60;;;7.40;99.90;;;;;;5002626;28;20042;-81
2020/12/12 05:08:21;;;;;;;17.17;8.85;;;7.30;99.90;;;;;;4992510;28;20053;-83
2020/12/12 05:10:50;;;;;;;20.30;8.93;;;7.30;99.90;;;;;;4991516;28;20134;-83
2020/12/12 05:13:28;;;;;;;18.65;9.15;;;7.30;99.90;;;;;;5006380;28;20050;-83
2020/12/12 05:15:56;;;;;;;17.05;8.50;;;7.50;99.90;;;;;;5011869;28;20080;-83
2020/12/12 05:18:25;;;;;;;17.45;9.10;;;7.40;99.90;;;;;;5005408;28;20140;-83
2020/12/12 05:20:53;;;;;;;14.75;8.02;;;7.40;99.90;;;;;;5011774;28;20062;-83
2020/12/12 05:23:24;;;;;;;16.83;8.77;;;7.30;99.90;;;;;;4979086;28;20065;-83
2020/12/12 05:25:53;;;;;;;16.40;8.77;;;7.30;99.90;;;;;;5009264;28;20050;-82
2020/12/12 05:28:21;;;;;;;18.00;9.07;;;7.40;99.90;;;;;;5007648;28;20057;-82
2020/12/12 05:30:50;;;;;;;17.83;9.65;;;7.40;99.90;;;;;;4994609;28;20050;-82
2020/12/12 05:33:22;;;;;;;17.52;8.63;;;7.50;99.90;;;;;;4997560;28;20149;-83
2020/12/12 05:35:50;;;;;;;20.52;9.68;;;7.50;99.90;;;;;;5013949;28;20045;-83
2020/12/12 05:38:17;;;;;;;21.08;10.05;;;7.40;99.90;;;;;;5007707;28;20416;-82
2020/12/12 05:40:51;;;;;;;20.92;10.48;;;7.50;99.90;;;;;;5009005;28;20049;-82
2020/12/12 05:43:17;;;;;;;17.60;9.60;;;7.60;99.90;;;;;;5008235;28;20588;-82
2020/12/12 05:45:44;;;;;;;21.55;10.40;;;7.60;99.90;;;;;;4987605;28;20046;-80
2020/12/12 05:48:14;;;;;;;20.77;9.07;;;7.40;99.90;;;;;;5015058;28;20053;-81
2020/12/12 05:50:41;;;;;;;20.23;9.73;;;7.40;99.90;;;;;;4993352;28;20049;-81
2020/12/12 05:53:08;;;;;;;18.58;8.60;;;7.50;99.90;;;;;;5008751;28;20125;-80
2020/12/12 05:55:34;;;;;;;17.30;7.97;;;7.50;99.90;;;;;;4993511;28;20130;-81
2020/12/12 05:58:01;;;;;;;17.13;8.65;;;7.50;99.90;;;;;;4993087;28;20060;-82
2020/12/12 06:00:31;;;;;;;17.58;8.40;;;7.50;99.90;;;;;;4992286;28;20058;-82
2020/12/12 06:02:58;;;;;;;16.35;7.85;;;7.40;99.90;;;;;;5013758;28;20045;-82
2020/12/12 06:05:30;;;;;;;16.98;8.75;;;7.40;99.90;;;;;;4992654;28;20481;-81
2020/12/12 06:07:58;;;;;;;15.25;8.43;;;7.40;99.90;;;;;;5006172;28;20050;-80
2020/12/12 06:10:28;;;;;;;17.95;8.18;;;7.40;99.90;;;;;;4996084;28;20074;-81
2020/12/12 06:13:05;;;;;;;14.03;8.03;;;7.40;99.90;;;;;;4993222;28;20042;-80
2020/12/12 06:15:41;;;;;;;16.85;8.00;;;7.40;99.90;;;;;;5011117;28;20046;-81
2020/12/12 06:18:35;;;;;;;12.50;7.60;;;7.50;99.90;;;;;;4994131;28;20046;-81
2020/12/12 06:21:07;;;;;;;16.23;8.07;;;7.50;99.90;;;;;;5005074;28;20065;-81
2020/12/12 06:23:39;;;;;;;20.10;8.52;;;7.30;99.90;;;;;;5011161;28;20057;-81
2020/12/12 06:26:08;;;;;;;17.40;8.55;;;7.20;99.90;;;;;;5005563;28;20057;-80
2020/12/12 06:28:43;;;;;;;16.73;7.80;;;7.30;99.90;;;;;;4992054;28;20160;-81
2020/12/12 06:31:15;;;;;;;21.30;8.80;;;7.30;99.90;;;;;;5011619;28;20050;-81
2020/12/12 06:33:50;;;;;;;15.32;8.18;;;7.40;99.90;;;;;;5011246;28;20092;-81
2020/12/12 06:36:23;;;;;;;17.33;8.20;;;7.40;99.90;;;;;;5009645;28;20054;-82
2020/12/12 06:38:50;;;;;;;13.15;7.75;;;7.50;99.90;;;;;;5011414;28;20129;-82
2020/12/12 06:41:47;;;;;;;17.33;7.70;;;7.50;99.90;;;;;;5004466;28;20042;-80
2020/12/12 06:44:34;;;;;;;13.70;7.38;;;7.30;99.90;;;;;;4993622;28;20057;-81
2020/12/12 06:47:01;;;;;;;15.02;7.90;;;7.30;99.90;;;;;;5011439;28;20049;-81
2020/12/12 06:49:29;;;;;;;15.98;8.57;;;7.30;99.90;;;;;;5010705;28;20385;-81
2020/12/12 06:51:56;;;;;;;14.23;7.53;;;7.30;99.90;;;;;;5008295;28;20046;-81
2020/12/12 06:54:23;;;;;;;13.20;7.72;;;7.40;99.90;;;;;;4995397;28;20069;-82
2020/12/12 06:56:50;;;;;;;18.13;8.63;;;7.40;99.90;;;;;;5008800;28;20054;-85
2020/12/12 06:59:23;;;;;;;20.90;8.63;;;7.40;99.90;;;;;;4992125;28;20054;-83
2020/12/12 07:01:55;;;;;;;17.65;8.40;;;7.40;99.90;;;;;;5013357;28;20049;-81
2020/12/12 07:04:30;;;;;;;13.65;7.75;;;7.50;99.90;;;;;;5010562;28;20480;-82
2020/12/12 07:06:57;;;;;;;15.25;8.05;;;7.50;99.90;;;;;;4978715;28;20049;-80
2020/12/12 07:09:25;;;;;;;13.95;7.50;;;7.60;99.90;;;;;;5011724;28;20053;-83
2020/12/12 07:11:52;;;;;;;21.17;8.13;;;7.50;99.90;;;;;;4992019;28;20485;-83
2020/12/12 07:14:20;;;;;;;18.58;8.13;;;7.40;99.90;;;;;;4994640;28;20108;-83
2020/12/12 07:16:50;;;;;;;17.15;8.55;;;7.50;99.90;;;;;;4995504;28;20050;-83
2020/12/12 07:19:27;;;;;;;15.57;8.10;;;7.60;99.90;;;;;;5011707;28;20058;-83
2020/12/12 07:21:54;;;;;;;17.83;8.25;;;7.70;99.90;;;;;;4989771;28;20050;-82
2020/12/12 07:24:21;;;;;;;20.33;7.63;;;7.80;99.90;;;;;;4993821;28;20125;-82
2020/12/12 07:26:48;;;;;;;15.60;7.75;;;7.70;99.90;;;;;;4991957;28;20058;-82
2020/12/12 07:29:14;;;;;;;18.02;8.80;;;7.60;99.90;;;;;;5012811;28;20045;-83
2020/12/12 07:31:42;;;;;;;16.10;8.55;;;7.70;99.90;;;;;;4994960;28;20053;-83
2020/12/12 07:34:09;;;;;;;18.52;8.05;;;7.70;99.90;;;;;;4993910;28;20477;-82
2020/12/12 07:36:35;;;;;;;15.75;7.63;;;7.70;99.90;;;;;;4993752;28;20412;-83
2020/12/12 07:39:12;;;;;;;17.88;7.97;;;7.60;99.90;;;;;;5009386;28;20117;-84
2020/12/12 07:41:47;;;;;;;15.20;8.52;;;7.70;99.90;;;;;;5010073;28;20050;-82
2020/12/12 07:44:17;;;;;;;17.48;8.45;;;7.80;99.90;;;;;;4975410;28;20119;-79
2020/12/12 07:47:12;;;;;;;16.20;8.75;;;7.80;99.90;;;;;;4984986;28;20070;-82
2020/12/12 07:49:40;;;;;;;16.85;8.88;;;7.90;99.90;;;;;;5006241;28;20140;-83
2020/12/12 07:52:09;;;;;;;20.70;9.65;;;7.80;99.90;;;;;;5010107;28;20077;-82
2020/12/12 07:55:06;;;;;;;18.55;9.68;;;7.80;99.90;;;;;;4992686;28;20042;-84
2020/12/12 07:57:40;;;;;;;18.63;9.35;;;7.80;99.90;;;;;;4992927;28;20132;-81
2020/12/12 08:00:08;;;;;;;23.50;10.95;;;7.60;99.90;;;;;;4986533;28;20069;-82
2020/12/12 08:02:35;;;;;;;18.48;10.02;;;7.70;99.90;;;;;;5007460;28;20049;-82
2020/12/12 08:05:09;;;;;;;22.77;10.85;;;7.60;99.90;;;;;;5004269;28;20049;-83
2020/12/12 08:07:36;;;;;;;19.00;9.45;;;7.60;99.90;;;;;;5005118;28;20478;-85
2020/12/12 08:10:23;;;;;;;23.48;11.25;;;7.50;99.90;;;;;;4995719;28;20050;-83
2020/12/12 08:12:49;;;;;;;25.15;11.40;;;7.60;99.90;;;;;;5007707;28;20045;-83
2020/12/12 08:15:19;;;;;;;22.02;11.45;;;7.70;99.90;;;;;;4994494;28;20053;-84
2020/12/12 08:17:46;;;;;;;22.42;11.00;;;7.50;99.90;;;;;;4992094;28;20050;-83
2020/12/12 08:20:17;;;;;;;22.10;11.43;;;7.60;99.90;;;;;;4991536;28;20073;-83
2020/12/12 08:22:44;;;;;;;23.73;11.23;;;7.60;99.90;;;;;;5010996;28;20045;-83
2020/12/12 08:25:11;;;;;;;23.52;11.60;;;7.60;99.90;;;;;;5007384;28;20057;-84
2020/12/12 08:27:38;;;;;;;23.23;11.38;;;7.60;99.90;;;;;;4993236;28;20050;-82
2020/12/12 08:30:07;;;;;;;24.90;11.30;;;7.60;99.90;;;;;;4993814;28;20060;-82
2020/12/12 08:32:39;;;;;;;23.52;11.38;;;7.50;99.90;;;;;;5007045;28;20049;-81
2020/12/12 08:35:23;;;;;;;23.38;11.05;;;7.70;99.90;;;;;;4991928;28;20385;-82
2020/12/12 08:37:56;;;;;;;29.65;11.25;;;7.60;99.90;;;;;;5010085;28;20049;-81
2020/12/12 08:40:27;;;;;;;23.17;12.02;;;7.50;99.90;;;;;;4993571;28;20086;-82
2020/12/12 08:43:13;;;;;;;23.05;11.90;;;7.50;99.90;;;;;;5002084;28;20141;-81
2020/12/12 08:45:53;;;;;;;22.83;11.77;;;7.60;99.90;;;;;;4997279;28;20057;-82
2020/12/12 08:48:20;;;;;;;24.73;11.70;;;7.60;99.90;;;;;;5007419;28;20053;-85
2020/12/12 08:50:56;;;;;;;24.55;12.23;;;7.60;99.90;;;;;;5012326;28;20057;-84
2020/12/12 08:53:26;;;;;;;26.80;11.85;;;7.40;99.90;;;;;;5012341;28;20133;-84
2020/12/12 08:56:11;;;;;;;24.60;12.48;;;7.50;99.90;;;;;;4993912;28;20508;-84
2020/12/12 08:58:39;;;;;;;23.85;11.63;;;7.60;99.90;;;;;;5010999;28;20042;-82
2020/12/12 09:01:11;;;;;;;25.63;12.23;;;7.50;99.90;;;;;;4998483;28;20046;-84
2020/12/12 09:03:56;;;;;;;26.35;13.00;;;7.60;99.90;;;;;;5009404;28;20101;-85
2020/12/12 09:06:25;;;;;;;23.95;11.65;;;7.60;99.90;;;;;;4989879;28;20046;-83
2020/12/12 09:09:22;;;;;;;29.10;13.48;;;7.60;99.90;;;;;;5001202;28;20060;-83
2020/12/12 09:12:01;;;;;;;22.95;12.23;;;7.60;99.90;;;;;;4995619;28;20496;-83
2020/12/12 09:14:30;;;;;;;22.17;12.45;;;7.70;99.90;;;;;;5011464;28;20457;-82
2020/12/12 09:16:59;;;;;;;25.25;12.95;;;7.70;99.90;;;;;;4998281;28;20042;-82
2020/12/12 09:19:27;;;;;;;23.67;12.30;;;7.70;99.90;;;;;;4996302;28;20038;-84
2020/12/12 09:21:56;;;;;;;27.50;12.45;;;7.70;99.90;;;;;;5012279;28;20045;-82
2020/12/12 09:24:23;;;;;;;23.48;11.60;;;7.80;99.90;;;;;;4996466;28;20420;-83
2020/12/12 09:26:52;;;;;;;24.05;12.60;;;7.70;99.90;;;;;;5008742;28;20046;-82
2020/12/12 09:29:19;;;;;;;25.60;12.93;;;7.60;99.90;;;;;;5008816;28;20046;-82
2020/12/12 09:31:48;;;;;;;27.48;12.55;;;7.70;99.90;;;;;;5011231;28;20096;-82
2020/12/12 09:34:16;;;;;;;25.80;11.70;;;7.80;99.90;;;;;;5012631;28;20042;-83
2020/12/12 09:36:42;;;;;;;20.67;11.00;;;7.80;99.90;;;;;;5006110;28;20129;-82
2020/12/12 09:39:09;;;;;;;28.25;11.63;;;7.70;99.90;;;;;;5007688;28;20069;-84
2020/12/12 09:41:35;;;;;;;24.90;11.80;;;7.70;99.90;;;;;;4993422;28;20045;-83
2020/12/12 09:44:05;;;;;;;23.40;12.07;;;7.90;99.90;;;;;;5014333;28;20050;-83
2020/12/12 09:46:32;;;;;;;24.27;11.95;;;7.80;99.90;;;;;;5008737;28;20058;-84
2020/12/12 09:48:59;;;;;;;22.17;11.27;;;7.90;99.90;;;;;;4998100;28;20054;-82
2020/12/12 09:51:28;;;;;;;22.88;10.48;;;7.90;99.90;;;;;;5013336;28;20401;-82
2020/12/12 09:53:58;;;;;;;21.52;10.27;;;7.90;99.90;;;;;;4995741;28;20079;-83
2020/12/12 09:56:24;;;;;;;20.13;9.68;;;7.90;99.90;;;;;;5011520;28;20050;-84
2020/12/12 09:58:51;;;;;;;20.38;10.43;;;8.00;99.90;;;;;;4994566;28;20412;-85
2020/12/12 10:01:18;;;;;;;22.95;10.45;;;8.00;99.90;;;;;;5012900;28;20046;-83
2020/12/12 10:03:47;;;;;;;26.25;9.95;;;7.90;99.90;;;;;;5008013;28;20038;-83
2020/12/12 10:06:14;;;;;;;24.10;10.27;;;8.00;99.90;;;;;;4997629;28;20136;-82
2020/12/12 10:08:45;;;;;;;21.23;10.23;;;8.10;99.90;;;;;;5008961;28;20046;-85
2020/12/12 10:11:12;;;;;;;20.38;10.48;;;8.00;99.90;;;;;;5011148;28;20073;-83
2020/12/12 10:13:41;;;;;;;21.77;10.77;;;8.00;99.90;;;;;;4986558;28;20409;-85
2020/12/12 10:16:09;;;;;;;20.50;10.10;;;7.80;99.90;;;;;;4990234;28;20153;-87
2020/12/12 10:18:36;;;;;;;20.92;11.00;;;7.80;99.90;;;;;;4996191;28;20060;-85
2020/12/12 10:21:03;;;;;;;24.33;10.70;;;7.90;99.90;;;;;;5010994;28;20178;-85
2020/12/12 10:23:30;;;;;;;20.48;11.07;;;7.90;99.90;;;;;;4992936;28;20050;-83
2020/12/12 10:26:05;;;;;;;28.25;11.95;;;8.00;99.90;;;;;;5007170;28;20124;-85
2020/12/12 10:28:31;;;;;;;19.20;10.05;;;8.10;99.90;;;;;;4995077;28;20473;-83
2020/12/12 10:31:00;;;;;;;23.40;11.27;;;7.90;99.90;;;;;;5010489;28;20057;-81
2020/12/12 10:33:26;;;;;;;20.90;10.35;;;7.70;99.90;;;;;;4993055;28;20061;-81
2020/12/12 10:35:54;;;;;;;21.77;10.80;;;7.80;99.90;;;;;;5004925;28;20493;-80
2020/12/12 10:38:24;;;;;;;23.35;10.52;;;8.00;99.90;;;;;;4981851;28;20557;-81
2020/12/12 10:41:03;;;;;;;20.15;10.95;;;8.10;99.90;;;;;;4997722;28;20168;-82
2020/12/12 10:43:30;;;;;;;20.48;10.02;;;8.30;99.90;;;;;;4976885;28;20138;-79
2020/12/12 10:46:02;;;;;;;20.90;10.40;;;8.30;99.90;;;;;;4984956;28;20049;-82
2020/12/12 10:48:34;;;;;;;15.48;8.93;;;8.20;99.90;;;;;;4999122;28;20192;-81
2020/12/12 10:51:03;;;;;;;21.77;9.82;;;8.30;99.90;;;;;;4982916;28;20062;-80
2020/12/12 10:53:30;;;;;;;22.35;9.73;;;8.30;99.90;;;;;;4980385;28;20124;-80
2020/12/12 10:55:56;;;;;;;17.27;9.25;;;8.40;99.90;;;;;;4986385;28;20144;-80
2020/12/12 10:58:23;;;;;;;17.92;9.90;;;8.30;99.90;;;;;;4981442;28;20046;-81
2020/12/12 11:00:53;;;;;;;18.42;9.85;;;8.10;99.90;;;;;;4998436;28;20046;-80
2020/12/12 11:03:24;;;;;;;22.48;8.70;;;8.10;99.90;;;;;;4982977;28;20157;-81
2020/12/12 11:05:58;;;;;;;17.77;9.02;;;8.20;99.90;;;;;;4971167;28;20069;-81
2020/12/12 11:08:24;;;;;;;17.30;9.02;;;8.20;99.90;;;;;;4978029;28;20061;-74
2020/12/12 11:10:51;;;;;;;18.88;8.98;;;8.20;99.90;;;;;;4990624;28;20051;-77
2020/12/12 11:13:19;;;;;;;16.25;8.30;;;8.30;99.90;;;;;;4990275;28;20874;-75
2020/12/12 11:15:46;;;;;;;19.10;9.32;;;8.40;99.90;;;;;;4971757;28;20046;-75
2020/12/12 11:18:14;;;;;;;16.50;8.73;;;8.30;99.90;;;;;;4974979;28;20060;-74
2020/12/12 11:20:41;;;;;;;16.98;9.65;;;8.40;99.90;;;;;;4992002;28;20051;-73
2020/12/12 11:23:07;;;;;;;16.25;8.75;;;8.40;99.90;;;;;;4995142;28;20057;-75
2020/12/12 11:25:34;;;;;;;16.48;8.82;;;8.40;99.90;;;;;;4983833;28;20052;-78
2020/12/12 11:28:00;;;;;;;19.33;9.95;;;8.40;99.90;;;;;;4970328;28;20049;-75
2020/12/12 11:30:27;;;;;;;18.67;9.35;;;8.40;99.90;;;;;;4989820;28;20504;-74
2020/12/12 11:32:57;;;;;;;19.98;9.80;;;8.20;99.90;;;;;;4994009;28;20060;-75
2020/12/12 11:35:31;;;;;;;19.77;9.65;;;8.30;99.90;;;;;;4974792;28;20112;-75
2020/12/12 11:38:15;;;;;;;18.10;8.77;;;8.40;99.90;;;;;;4993053;28;20038;-75
2020/12/12 11:46:27;;;;;;;17.92;8.85;;;8.40;99.90;;;;;;4992633;28;20042;-73
2020/12/12 11:48:46;;;;;;;19.52;9.50;;;8.30;99.90;;;;;;4991992;28;20065;-74
2020/12/12 11:51:14;;;;;;;16.95;8.70;;;8.40;99.90;;;;;;4984652;28;20100;-74
2020/12/12 11:53:41;;;;;;;19.23;8.35;;;8.40;99.90;;;;;;4976789;28;20050;-74
2020/12/12 11:56:08;;;;;;;15.55;8.30;;;8.50;99.90;;;;;;4980965;28;20050;-74
2020/12/12 11:58:34;;;;;;;15.55;8.48;;;8.60;99.90;;;;;;4993322;28;20046;-74
2020/12/12 12:01:03;;;;;;;14.50;7.72;;;8.60;99.90;;;;;;4994598;28;20085;-74
2020/12/12 12:03:30;;;;;;;15.50;8.23;;;8.70;99.90;;;;;;4983905;28;20054;-73
2020/12/12 12:05:56;;;;;;;17.30;8.77;;;8.70;99.90;;;;;;4992815;28;21869;-72
2020/12/12 12:08:30;;;;;;;15.57;8.05;;;8.80;99.90;;;;;;4995323;28;20050;-85
2020/12/12 12:11:14;;;;;;;16.98;8.55;;;8.80;99.90;;;;;;4980279;28;20045;-82
2020/12/12 12:13:41;;;;;;;15.75;8.52;;;8.80;99.90;;;;;;4984008;28;20050;-83
2020/12/12 12:16:08;;;;;;;15.55;8.50;;;8.70;99.90;;;;;;4984792;28;20129;-75
2020/12/12 12:18:35;;;;;;;18.50;8.57;;;8.60;99.90;;;;;;4977632;28;20145;-77
2020/12/12 12:21:03;;;;;;;18.92;9.10;;;8.50;99.90;;;;;;4991176;28;20090;-79
2020/12/12 12:23:31;;;;;;;18.08;8.23;;;8.60;99.90;;;;;;4973254;28;20046;-80
2020/12/12 12:26:03;;;;;;;17.80;9.00;;;8.60;99.90;;;;;;4992979;28;20054;-81
2020/12/12 12:28:29;;;;;;;19.92;9.60;;;8.50;99.90;;;;;;4993779;28;20053;-79
2020/12/12 12:30:56;;;;;;;17.73;9.52;;;8.40;99.90;;;;;;4992792;28;20429;-79
2020/12/12 12:33:23;;;;;;;13.65;8.40;;;8.50;99.90;;;;;;4992953;28;20100;-79
2020/12/12 12:36:02;;;;;;;16.95;8.60;;;8.60;99.90;;;;;;4992797;28;20647;-84
2020/12/12 12:38:31;;;;;;;19.17;10.02;;;8.40;99.90;;;;;;4994499;28;20072;-79
2020/12/12 12:40:58;;;;;;;18.98;8.93;;;8.50;99.90;;;;;;4992400;28;20072;-78
2020/12/12 12:43:24;;;;;;;16.27;9.18;;;8.60;99.90;;;;;;4972464;28;20140;-79
2020/12/12 12:45:51;;;;;;;20.10;10.50;;;8.60;99.90;;;;;;4977796;28;20046;-79
2020/12/12 12:48:17;;;;;;;20.52;11.27;;;8.50;99.90;;;;;;4993284;28;20056;-79
2020/12/12 12:50:47;;;;;;;23.08;11.90;;;8.60;99.90;;;;;;4982707;28;20501;-78
2020/12/12 12:53:14;;;;;;;23.92;13.43;;;8.60;99.90;;;;;;4963303;28;20060;-82
2020/12/12 12:55:42;;;;;;;29.05;13.60;;;8.70;99.90;;;;;;4999601;28;20062;-86
2020/12/12 12:58:08;;;;;;;27.58;13.18;;;8.60;99.90;;;;;;4977462;28;20379;-80
2020/12/12 13:00:39;;;;;;;27.63;12.95;;;8.70;99.90;;;;;;4995959;28;20104;-82